Time;durP1;ratioP1;P1;durP2;ratioP2;P2;SDS_P1;SDS_P2;PMS_P1;PMS_P2;Temp;Humidity;BMP_temperature;BMP_pressure;BME280_temperature;BME280_humidity;BME280_pressure;Samples;Min_cycle;Max_cycle;Signal;HPM_P1;HPM_P2
2022/11/09 00:00:47;;;;;;;117.22;50.45;;;9.90;99.90;;;;;;5076095;28;20091;-57
2022/11/09 00:03:13;;;;;;;92.38;47.25;;;10.00;99.90;;;;;;5077747;28;20384;-57
2022/11/09 00:05:39;;;;;;;74.30;37.10;;;10.00;99.90;;;;;;5079126;28;20044;-56
2022/11/09 00:08:07;;;;;;;136.15;34.40;;;10.00;99.90;;;;;;5079881;28;20024;-59
2022/11/09 00:10:33;;;;;;;349.33;75.53;;;10.10;99.90;;;;;;5074414;28;20032;-59
2022/11/09 00:12:59;;;;;;;214.82;58.97;;;10.00;99.90;;;;;;5073503;28;20107;-58
2022/11/09 00:15:25;;;;;;;191.57;74.45;;;9.90;99.90;;;;;;5082430;28;20028;-58
2022/11/09 00:17:51;;;;;;;188.50;49.88;;;9.90;99.90;;;;;;5051810;28;20503;-57
2022/11/09 00:20:17;;;;;;;100.90;45.28;;;9.40;99.90;;;;;;5059440;28;20076;-58
2022/11/09 00:22:47;;;;;;;255.30;76.82;;;9.60;99.90;;;;;;5069931;28;20040;-58
2022/11/09 00:25:13;;;;;;;216.00;73.45;;;9.60;99.90;;;;;;5072324;28;20067;-56
2022/11/09 00:27:39;;;;;;;196.90;68.25;;;9.60;99.90;;;;;;5061793;28;20028;-58
2022/11/09 00:30:06;;;;;;;175.07;71.13;;;9.60;99.90;;;;;;5070705;28;20033;-59
2022/11/09 00:32:31;;;;;;;153.88;65.78;;;9.60;99.90;;;;;;5052337;28;20391;-59
2022/11/09 00:34:57;;;;;;;174.75;73.57;;;9.60;99.90;;;;;;5078674;28;20021;-56
2022/11/09 00:37:23;;;;;;;344.08;99.88;;;9.70;99.90;;;;;;5084470;28;20524;-58
2022/11/09 00:39:49;;;;;;;164.40;50.90;;;9.40;99.90;;;;;;5079360;28;20372;-59
2022/11/09 00:42:15;;;;;;;160.05;47.05;;;9.10;99.90;;;;;;5069568;28;20047;-57
2022/11/09 00:44:41;;;;;;;173.07;37.75;;;;;;;;;;5084066;28;20024;-58
2022/11/09 00:47:07;;;;;;;113.93;28.38;;;8.30;99.90;;;;;;5076483;28;20032;-58
2022/11/09 00:49:33;;;;;;;168.85;31.88;;;;;;;;;;5036766;28;20036;-58
2022/11/09 00:51:59;;;;;;;152.20;33.75;;;;;;;;;;5077857;28;20822;-57
2022/11/09 00:54:25;;;;;;;73.65;28.23;;;8.30;99.90;;;;;;5078841;28;20035;-57
2022/11/09 00:56:51;;;;;;;105.38;31.63;;;;;;;;;;5063150;28;20033;-57
2022/11/09 00:59:17;;;;;;;250.18;42.50;;;8.20;99.90;;;;;;5072083;28;20028;-56
2022/11/09 01:01:43;;;;;;;247.57;55.40;;;;;;;;;;5051713;28;20559;-56
2022/11/09 01:04:09;;;;;;;206.00;52.60;;;8.50;99.90;;;;;;5073168;28;20032;-56
2022/11/09 01:06:35;;;;;;;151.32;45.80;;;8.70;99.90;;;;;;5082690;28;20459;-58
2022/11/09 01:09:00;;;;;;;206.48;45.38;;;8.80;99.90;;;;;;5078180;28;20411;-57
2022/11/09 01:11:27;;;;;;;176.75;48.33;;;;;;;;;;5076973;28;20029;-59
2022/11/09 01:13:53;;;;;;;219.85;55.40;;;8.90;99.90;;;;;;5080712;28;20027;-56
2022/11/09 01:16:21;;;;;;;298.60;52.70;;;9.40;99.90;;;;;;5074190;28;20068;-57
2022/11/09 01:18:47;;;;;;;300.45;51.80;;;9.40;99.90;;;;;;5076391;28;20465;-56
2022/11/09 01:21:14;;;;;;;181.45;43.38;;;9.20;99.90;;;;;;5077068;28;20032;-59
2022/11/09 01:23:41;;;;;;;179.00;42.75;;;9.30;99.90;;;;;;5074874;28;20031;-58
2022/11/09 01:26:09;;;;;;;350.42;74.10;;;9.30;99.90;;;;;;5079128;28;20385;-59
2022/11/09 01:28:36;;;;;;;171.73;31.35;;;9.30;99.90;;;;;;5076322;28;20021;-57
2022/11/09 01:31:10;;;;;;;242.75;39.72;;;9.30;99.90;;;;;;5082272;28;20028;-59
2022/11/09 01:33:37;;;;;;;112.95;31.02;;;9.40;99.90;;;;;;5052935;28;20037;-57
2022/11/09 01:36:06;;;;;;;170.45;36.05;;;9.20;99.90;;;;;;5077999;28;20029;-57
2022/11/09 01:38:33;;;;;;;130.80;37.83;;;9.00;99.90;;;;;;5060526;28;20040;-56
2022/11/09 01:40:58;;;;;;;139.23;40.22;;;8.90;99.90;;;;;;5081715;28;20036;-58
2022/11/09 01:43:24;;;;;;;169.68;38.15;;;8.70;99.90;;;;;;5073453;28;20082;-56
2022/11/09 01:46:13;;;;;;;170.90;35.75;;;9.00;99.90;;;;;;5083212;28;20468;-58
2022/11/09 01:48:49;;;;;;;176.82;42.67;;;9.00;99.90;;;;;;5074276;28;20024;-58
2022/11/09 01:51:41;;;;;;;167.57;36.17;;;9.10;99.90;;;;;;5056201;28;20025;-57
2022/11/09 01:54:14;;;;;;;162.18;35.20;;;9.20;99.90;;;;;;5080090;28;20044;-56
2022/11/09 01:56:42;;;;;;;230.43;41.72;;;9.20;99.90;;;;;;5075718;28;20032;-57
2022/11/09 01:59:14;;;;;;;98.97;35.45;;;9.30;99.90;;;;;;5078298;28;20038;-56
2022/11/09 02:01:41;;;;;;;127.82;33.30;;;8.90;99.90;;;;;;5067689;28;20056;-56
2022/11/09 02:04:13;;;;;;;105.97;31.10;;;;;;;;;;5065187;28;20127;-57
2022/11/09 02:06:38;;;;;;;113.82;32.80;;;8.10;99.90;;;;;;5071990;28;20375;-56
2022/11/09 02:09:23;;;;;;;124.57;30.77;;;7.90;99.90;;;;;;5072357;28;20123;-56
2022/11/09 02:11:49;;;;;;;142.20;31.63;;;;;;;;;;5077604;28;20055;-58
2022/11/09 02:14:15;;;;;;;103.68;29.77;;;7.70;99.90;;;;;;5105515;28;20081;-57
2022/11/09 02:16:41;;;;;;;117.82;29.48;;;7.80;99.90;;;;;;5092135;28;20036;-58
2022/11/09 02:19:07;;;;;;;102.03;26.23;;;8.00;99.90;;;;;;5094668;28;20044;-57
2022/11/09 02:21:33;;;;;;;165.38;29.42;;;8.20;99.90;;;;;;5065491;28;20038;-57
2022/11/09 02:23:59;;;;;;;131.35;27.25;;;8.40;99.90;;;;;;5097223;28;20040;-56
2022/11/09 02:26:34;;;;;;;97.63;26.80;;;8.50;99.90;;;;;;5090721;28;20035;-59
2022/11/09 02:29:01;;;;;;;50.05;22.08;;;;;;;;;;5100548;28;20118;-56
2022/11/09 02:31:32;;;;;;;66.65;25.85;;;7.90;99.90;;;;;;5093686;28;20086;-58
2022/11/09 02:34:13;;;;;;;69.72;25.35;;;7.40;99.90;;;;;;5095820;28;20549;-58
2022/11/09 02:36:39;;;;;;;104.35;27.40;;;7.10;99.90;;;;;;5086796;28;20031;-58
2022/11/09 02:39:05;;;;;;;270.33;36.72;;;7.50;99.90;;;;;;5054195;28;20032;-56
2022/11/09 02:41:35;;;;;;;135.88;28.05;;;7.90;99.90;;;;;;5083368;28;20043;-59
2022/11/09 02:44:01;;;;;;;115.32;29.20;;;8.10;99.90;;;;;;5100378;28;20059;-57
2022/11/09 02:46:35;;;;;;;119.03;25.40;;;8.30;99.90;;;;;;5062961;28;20071;-56
2022/11/09 02:49:02;;;;;;;132.88;25.70;;;;;;;;;;5076659;28;20078;-57
2022/11/09 02:51:28;;;;;;;84.40;25.55;;;8.50;99.90;;;;;;5080528;28;20494;-56
2022/11/09 02:53:54;;;;;;;131.50;26.20;;;8.60;99.90;;;;;;5072885;28;20021;-58
2022/11/09 02:56:20;;;;;;;162.48;26.52;;;8.80;99.90;;;;;;5080114;28;20032;-57
2022/11/09 02:58:46;;;;;;;110.63;26.67;;;8.80;99.90;;;;;;5082942;28;20028;-59
2022/11/09 03:01:11;;;;;;;104.15;23.67;;;8.90;99.90;;;;;;5076581;28;20037;-58
2022/11/09 03:03:37;;;;;;;119.35;23.58;;;8.80;99.90;;;;;;5079205;28;20074;-57
2022/11/09 03:06:03;;;;;;;178.00;26.92;;;8.90;99.90;;;;;;5082686;28;20051;-57
2022/11/09 03:08:29;;;;;;;119.30;23.77;;;8.90;99.90;;;;;;5078229;28;20028;-57
2022/11/09 03:10:54;;;;;;;261.13;28.50;;;9.00;99.90;;;;;;5079966;28;20486;-56
2022/11/09 03:13:20;;;;;;;132.98;24.65;;;9.00;99.90;;;;;;5050862;28;20037;-58
2022/11/09 03:15:46;;;;;;;115.47;24.83;;;9.00;99.90;;;;;;5061783;28;20091;-57
2022/11/09 03:18:12;;;;;;;199.23;28.27;;;9.00;99.90;;;;;;5072347;28;20039;-57
2022/11/09 03:20:37;;;;;;;244.13;29.13;;;9.00;99.90;;;;;;5083057;28;20039;-58
2022/11/09 03:23:03;;;;;;;150.10;24.70;;;9.10;99.90;;;;;;5074416;28;20036;-57
2022/11/09 03:25:29;;;;;;;154.20;23.95;;;8.90;99.90;;;;;;5087182;28;20050;-58
2022/11/09 03:28:01;;;;;;;128.98;24.75;;;9.00;99.90;;;;;;5072236;28;20024;-59
2022/11/09 03:30:28;;;;;;;87.10;23.42;;;9.00;99.90;;;;;;5076246;28;20032;-58
2022/11/09 03:33:02;;;;;;;153.02;26.00;;;8.70;99.90;;;;;;5079277;28;20495;-56
2022/11/09 03:35:28;;;;;;;115.35;24.35;;;8.50;99.90;;;;;;5074262;28;20075;-56
2022/11/09 03:37:53;;;;;;;64.53;20.75;;;8.60;99.90;;;;;;5079467;28;20036;-56
2022/11/09 03:40:20;;;;;;;170.65;26.25;;;8.70;99.90;;;;;;5080157;28;20047;-58
2022/11/09 03:42:47;;;;;;;67.85;21.58;;;8.70;99.90;;;;;;5079294;28;20032;-56
2022/11/09 03:45:14;;;;;;;68.20;22.83;;;8.40;99.90;;;;;;5079948;28;20082;-57
2022/11/09 03:47:44;;;;;;;77.00;24.38;;;8.20;99.90;;;;;;5075681;28;20024;-59
2022/11/09 03:50:11;;;;;;;54.85;22.33;;;7.70;99.90;;;;;;5077987;28;20024;-58
2022/11/09 03:52:37;;;;;;;88.05;26.77;;;7.40;99.90;;;;;;5082727;28;20472;-55
2022/11/09 03:55:04;;;;;;;63.35;25.25;;;7.60;99.90;;;;;;5079354;28;20028;-56
2022/11/09 03:57:31;;;;;;;104.93;28.60;;;7.60;99.90;;;;;;5077996;28;20047;-58
2022/11/09 03:59:56;;;;;;;66.88;26.25;;;7.70;99.90;;;;;;5073155;28;20388;-58
2022/11/09 04:02:22;;;;;;;43.05;20.08;;;7.90;99.90;;;;;;5081698;28;20029;-57
2022/11/09 04:04:48;;;;;;;49.83;20.70;;;7.80;99.90;;;;;;5079632;28;20040;-58
2022/11/09 04:07:14;;;;;;;36.28;19.58;;;7.70;99.90;;;;;;5086006;28;20467;-56
2022/11/09 04:09:39;;;;;;;49.55;19.70;;;7.80;99.90;;;;;;5075724;28;20108;-56
2022/11/09 04:12:05;;;;;;;36.22;19.13;;;7.50;99.90;;;;;;5089325;28;20063;-58
2022/11/09 04:14:31;;;;;;;41.70;19.08;;;7.50;99.90;;;;;;5071387;28;20110;-56
2022/11/09 04:16:57;;;;;;;29.75;19.02;;;7.50;99.90;;;;;;5079148;28;20024;-58
2022/11/09 04:19:23;;;;;;;25.05;18.77;;;7.60;99.90;;;;;;5082726;28;20044;-56
2022/11/09 04:21:49;;;;;;;46.03;20.65;;;7.80;99.90;;;;;;5081944;28;20024;-56
2022/11/09 04:24:14;;;;;;;48.05;20.85;;;7.80;99.90;;;;;;5071514;28;20472;-62
2022/11/09 04:26:40;;;;;;;44.70;19.35;;;7.80;99.90;;;;;;5068045;28;20082;-58
2022/11/09 04:29:06;;;;;;;61.42;21.58;;;7.90;99.90;;;;;;5070972;28;20024;-57
2022/11/09 04:31:32;;;;;;;54.38;20.02;;;8.10;99.90;;;;;;5076947;28;20553;-58
2022/11/09 04:33:57;;;;;;;49.72;19.02;;;8.20;99.90;;;;;;5045266;28;20118;-57
2022/11/09 04:36:23;;;;;;;38.00;18.75;;;8.30;99.90;;;;;;5070231;28;20032;-57
2022/11/09 04:38:49;;;;;;;40.55;19.05;;;8.40;99.90;;;;;;5076706;28;20120;-56
2022/11/09 04:41:15;;;;;;;42.22;20.42;;;8.50;99.90;;;;;;5083377;28;20101;-56
2022/11/09 04:43:41;;;;;;;52.80;19.10;;;8.50;99.90;;;;;;5072993;28;20031;-56
2022/11/09 04:46:07;;;;;;;60.08;20.95;;;8.10;99.90;;;;;;5075827;28;20034;-57
2022/11/09 04:48:33;;;;;;;69.65;20.60;;;8.10;99.90;;;;;;5078398;28;20115;-55
2022/11/09 04:51:04;;;;;;;51.38;19.27;;;8.10;99.90;;;;;;5080404;28;20020;-57
2022/11/09 04:53:31;;;;;;;63.00;18.02;;;8.20;99.90;;;;;;5078698;28;20035;-58
2022/11/09 04:55:57;;;;;;;65.53;19.02;;;8.30;99.90;;;;;;5074741;28;20047;-56
2022/11/09 04:58:23;;;;;;;71.38;18.85;;;8.10;99.90;;;;;;5080204;28;20059;-57
2022/11/09 05:00:49;;;;;;;79.18;19.88;;;7.80;99.90;;;;;;5068322;28;20079;-57
2022/11/09 05:03:15;;;;;;;75.43;19.52;;;8.00;99.90;;;;;;5070403;28;20059;-57
2022/11/09 05:05:41;;;;;;;133.02;20.17;;;8.10;99.90;;;;;;5068253;28;20072;-57
2022/11/09 05:08:07;;;;;;;57.10;18.10;;;7.90;99.90;;;;;;5084444;28;20436;-55
2022/11/09 05:10:34;;;;;;;58.58;18.38;;;8.10;99.90;;;;;;5069819;28;20115;-57
2022/11/09 05:13:04;;;;;;;50.35;17.23;;;8.20;99.90;;;;;;5075761;28;20106;-55
2022/11/09 05:15:30;;;;;;;45.20;15.88;;;8.30;99.90;;;;;;5082045;28;20527;-57
2022/11/09 05:17:56;;;;;;;52.80;16.20;;;8.30;99.90;;;;;;5076367;28;20055;-57
2022/11/09 05:20:23;;;;;;;72.88;16.85;;;8.40;99.90;;;;;;5078306;28;20064;-58
2022/11/09 05:25:33;;;;;;;54.38;16.38;;;8.40;99.90;;;;;;5077845;28;20039;-57
2022/11/09 05:27:58;;;;;;;78.35;16.95;;;8.20;99.90;;;;;;5062958;28;20025;-57
2022/11/09 05:30:24;;;;;;;51.08;16.50;;;8.20;99.90;;;;;;5063995;28;20029;-56
2022/11/09 05:32:50;;;;;;;61.88;16.95;;;7.90;99.90;;;;;;5068451;28;20067;-57
2022/11/09 05:35:16;;;;;;;53.17;17.70;;;7.90;99.90;;;;;;5074351;28;20115;-58
2022/11/09 05:37:44;;;;;;;49.92;16.90;;;8.10;99.90;;;;;;5071323;28;20475;-58
2022/11/09 05:40:10;;;;;;;37.83;15.88;;;8.00;99.90;;;;;;5079326;28;20384;-58
2022/11/09 05:42:40;;;;;;;38.75;17.15;;;7.80;99.90;;;;;;5072364;28;20127;-56
2022/11/09 05:45:08;;;;;;;59.63;20.83;;;7.50;99.90;;;;;;5078768;28;20035;-59
2022/11/09 05:47:42;;;;;;;34.33;17.98;;;7.70;99.90;;;;;;5038320;28;20078;-55
2022/11/09 05:50:11;;;;;;;61.00;21.10;;;7.90;99.90;;;;;;5075550;28;20031;-58
2022/11/09 05:52:37;;;;;;;37.63;18.63;;;7.90;99.90;;;;;;5066802;28;20025;-59
2022/11/09 05:55:03;;;;;;;80.30;19.42;;;7.80;99.90;;;;;;5068960;28;20044;-59
2022/11/09 05:57:29;;;;;;;35.70;19.25;;;7.60;99.90;;;;;;5049417;28;20532;-57
2022/11/09 05:59:55;;;;;;;61.78;24.05;;;7.70;99.90;;;;;;5060462;28;20060;-55
2022/11/09 06:02:21;;;;;;;70.63;23.55;;;7.70;99.90;;;;;;5050175;28;20139;-56
2022/11/09 06:04:47;;;;;;;73.93;21.52;;;7.60;99.90;;;;;;5071718;28;20126;-57
2022/11/09 06:07:12;;;;;;;58.95;20.52;;;7.80;99.90;;;;;;5079599;28;20098;-57
2022/11/09 06:09:38;;;;;;;56.03;21.25;;;8.00;99.90;;;;;;5072339;28;20371;-57
2022/11/09 06:12:04;;;;;;;59.30;21.35;;;8.10;99.90;;;;;;5073461;28;20044;-56
2022/11/09 06:14:30;;;;;;;55.17;20.58;;;8.30;99.90;;;;;;5066247;28;20032;-59
2022/11/09 06:16:55;;;;;;;43.75;19.77;;;8.40;99.90;;;;;;5067657;28;20059;-57
2022/11/09 06:19:21;;;;;;;44.90;19.13;;;8.50;99.90;;;;;;5071277;28;20102;-53
2022/11/09 06:21:47;;;;;;;41.90;17.33;;;8.60;99.90;;;;;;5081310;28;20032;-56
2022/11/09 06:24:13;;;;;;;55.42;18.02;;;8.60;99.90;;;;;;5064467;28;20128;-56
2022/11/09 06:26:39;;;;;;;38.80;18.35;;;8.80;99.90;;;;;;5069099;28;20036;-54
2022/11/09 06:29:05;;;;;;;49.38;18.83;;;9.00;99.90;;;;;;5076124;28;20495;-56
2022/11/09 06:31:31;;;;;;;47.70;19.67;;;9.00;99.90;;;;;;5074958;28;20044;-55
2022/11/09 06:33:56;;;;;;;38.53;17.13;;;9.30;99.90;;;;;;5067483;28;20086;-54
2022/11/09 06:36:22;;;;;;;55.88;19.05;;;9.20;99.90;;;;;;5073094;28;20020;-55
2022/11/09 06:38:49;;;;;;;51.03;20.05;;;9.40;99.90;;;;;;5061493;28;20453;-54
2022/11/09 06:41:15;;;;;;;47.38;18.00;;;9.70;99.90;;;;;;5073744;28;20039;-55
2022/11/09 06:43:41;;;;;;;32.75;17.58;;;;;;;;;;5076929;28;20447;-55
2022/11/09 06:46:09;;;;;;;43.75;17.55;;;9.80;99.90;;;;;;5072072;28;20043;-55
2022/11/09 06:48:38;;;;;;;33.33;17.73;;;10.00;99.90;;;;;;5071576;28;20036;-54
2022/11/09 06:51:05;;;;;;;32.30;16.42;;;10.10;99.90;;;;;;5071245;28;20040;-54
2022/11/09 06:53:33;;;;;;;52.00;17.13;;;10.20;99.90;;;;;;5079302;28;20020;-55
2022/11/09 06:56:01;;;;;;;66.53;18.73;;;10.20;99.90;;;;;;5077847;28;20040;-55
2022/11/09 06:58:27;;;;;;;54.45;18.88;;;10.20;99.90;;;;;;5083017;28;20020;-54
2022/11/09 07:00:53;;;;;;;60.35;17.92;;;10.20;99.90;;;;;;5048376;28;20799;-55
2022/11/09 07:03:20;;;;;;;45.75;16.45;;;10.20;99.90;;;;;;5079269;28;20024;-55
2022/11/09 07:05:47;;;;;;;46.75;16.88;;;10.20;99.90;;;;;;5064223;28;20111;-57
2022/11/09 07:08:14;;;;;;;45.88;16.23;;;10.00;99.90;;;;;;5079857;28;20047;-55
2022/11/09 07:10:40;;;;;;;56.40;16.63;;;10.20;99.90;;;;;;5076725;28;20035;-55
2022/11/09 07:13:06;;;;;;;50.67;17.60;;;10.20;99.90;;;;;;5077047;28;20116;-57
2022/11/09 07:15:33;;;;;;;58.10;17.25;;;10.30;99.90;;;;;;5066065;28;20017;-55
2022/11/09 07:18:01;;;;;;;78.18;18.30;;;10.10;99.90;;;;;;5077068;28;20497;-55
2022/11/09 07:20:28;;;;;;;50.15;17.05;;;10.00;99.90;;;;;;5077667;28;20123;-55
2022/11/09 07:22:54;;;;;;;69.10;20.13;;;9.70;99.90;;;;;;5074541;28;20487;-55
2022/11/09 07:25:20;;;;;;;67.25;17.20;;;9.90;99.90;;;;;;5079971;28;20024;-55
2022/11/09 07:27:46;;;;;;;67.72;15.13;;;9.90;99.90;;;;;;5079793;28;20024;-55
2022/11/09 07:30:12;;;;;;;49.80;13.57;;;9.90;99.90;;;;;;5075993;28;20675;-55
2022/11/09 07:32:39;;;;;;;57.03;17.77;;;9.80;99.90;;;;;;5077460;28;20035;-55
2022/11/09 07:35:06;;;;;;;38.28;16.88;;;10.00;99.90;;;;;;5081621;28;20036;-55
2022/11/09 07:37:32;;;;;;;29.70;16.48;;;10.20;99.90;;;;;;5067578;28;20501;-56
2022/11/09 07:39:58;;;;;;;39.50;16.98;;;10.10;99.90;;;;;;5064154;28;20080;-55
2022/11/09 07:42:24;;;;;;;47.88;16.05;;;10.30;99.90;;;;;;5040922;28;20040;-54
2022/11/09 07:44:50;;;;;;;35.63;15.35;;;10.40;99.90;;;;;;5083626;28;20036;-55
2022/11/09 07:47:18;;;;;;;39.88;14.07;;;10.40;99.90;;;;;;5079540;28;20078;-55
2022/11/09 07:49:44;;;;;;;29.08;13.40;;;;;;;;;;5079212;28;20028;-56
2022/11/09 07:52:10;;;;;;;21.58;12.52;;;10.70;99.90;;;;;;5080248;28;20104;-58
2022/11/09 07:54:37;;;;;;;24.95;12.88;;;;;;;;;;5076410;28;20103;-55
2022/11/09 07:57:03;;;;;;;19.90;12.70;;;12.10;99.90;;;;;;5076923;28;20162;-55
2022/11/09 07:59:30;;;;;;;19.48;14.43;;;12.60;99.90;;;;;;5079003;28;20458;-55
2022/11/09 08:01:56;;;;;;;14.80;12.98;;;13.10;99.90;;;;;;5075055;28;20807;-54
2022/11/09 08:04:22;;;;;;;22.88;14.30;;;13.60;99.90;;;;;;5073230;28;20467;-55
2022/11/09 08:06:51;;;;;;;22.75;14.30;;;;;;;;;;5078582;28;20099;-55
2022/11/09 08:09:17;;;;;;;18.73;14.75;;;;;;;;;;5068034;28;20484;-55
2022/11/09 08:11:42;;;;;;;22.23;12.80;;;15.40;99.90;;;;;;5072062;28;20657;-56
2022/11/09 08:14:09;;;;;;;15.95;12.75;;;;;;;;;;5074958;28;20056;-58
2022/11/09 08:16:35;;;;;;;21.77;14.77;;;16.30;99.90;;;;;;5067955;28;20035;-57
2022/11/09 08:19:01;;;;;;;39.65;26.20;;;16.20;99.90;;;;;;5077609;28;20042;-57
2022/11/09 08:21:26;;;;;;;24.35;18.25;;;15.70;99.90;;;;;;5044601;28;20048;-56
2022/11/09 08:23:52;;;;;;;38.33;25.83;;;15.90;99.90;;;;;;5075510;28;20030;-56
2022/11/09 08:26:18;;;;;;;25.80;19.15;;;16.00;99.90;;;;;;5074026;28;20056;-57
2022/11/09 08:28:43;;;;;;;42.40;17.05;;;16.10;99.90;;;;;;5073230;28;20024;-57
2022/11/09 08:31:09;;;;;;;25.17;16.48;;;;;;;;;;5078180;28;20052;-57
2022/11/09 08:33:38;;;;;;;33.45;15.75;;;15.80;99.90;;;;;;5068234;28;20047;-56
2022/11/09 08:36:11;;;;;;;26.27;17.90;;;15.80;99.90;;;;;;5084009;28;20043;-56
2022/11/09 08:38:37;;;;;;;49.13;17.67;;;15.80;99.90;;;;;;5019930;28;20032;-56
2022/11/09 08:41:03;;;;;;;22.73;18.08;;;15.40;99.90;;;;;;5074934;28;20083;-56
2022/11/09 08:43:29;;;;;;;29.58;21.83;;;15.70;99.90;;;;;;5066904;28;20369;-56
2022/11/09 08:45:55;;;;;;;32.03;24.33;;;15.90;99.90;;;;;;5080636;28;20392;-56
2022/11/09 08:48:20;;;;;;;34.47;24.77;;;15.90;99.90;;;;;;5050965;28;20064;-57
2022/11/09 08:50:51;;;;;;;48.83;27.00;;;15.90;99.90;;;;;;4986797;28;20036;-56
2022/11/09 08:53:17;;;;;;;37.60;25.00;;;16.20;99.90;;;;;;5072906;28;20039;-56
2022/11/09 08:55:43;;;;;;;40.40;24.85;;;16.00;99.90;;;;;;5055888;28;20040;-56
2022/11/09 08:58:09;;;;;;;42.28;28.20;;;16.20;99.90;;;;;;5083155;28;20036;-57
2022/11/09 09:00:35;;;;;;;46.75;31.48;;;16.30;99.90;;;;;;5074102;28;20047;-56
2022/11/09 09:03:04;;;;;;;49.85;33.38;;;16.30;99.90;;;;;;5066153;28;20384;-57
2022/11/09 09:05:30;;;;;;;44.35;30.60;;;16.10;99.90;;;;;;5046648;28;20052;-57
2022/11/09 09:07:58;;;;;;;41.30;29.75;;;;;;;;;;5085290;28;20400;-56
2022/11/09 09:10:24;;;;;;;38.75;28.38;;;16.90;99.90;;;;;;5079510;28;20032;-57
2022/11/09 09:12:51;;;;;;;49.65;29.08;;;;;;;;;;5021982;28;20124;-57
2022/11/09 09:15:16;;;;;;;46.17;30.38;;;17.70;99.90;;;;;;5024449;28;20026;-57
2022/11/09 09:17:42;;;;;;;42.55;30.92;;;17.30;99.90;;;;;;5006353;28;20092;-57
2022/11/09 09:20:08;;;;;;;41.83;29.77;;;17.40;99.90;;;;;;5017302;28;20041;-58
2022/11/09 09:22:34;;;;;;;42.95;29.95;;;17.40;99.90;;;;;;5026501;28;20125;-58
2022/11/09 09:25:00;;;;;;;43.03;29.88;;;17.20;99.90;;;;;;5021790;28;20105;-58
2022/11/09 09:27:28;;;;;;;46.70;32.45;;;17.50;99.90;;;;;;5020219;28;20623;-58
2022/11/09 09:29:54;;;;;;;41.50;30.10;;;;;;;;;;5019328;28;20599;-57
2022/11/09 09:32:20;;;;;;;42.83;30.40;;;;;;;;;;5024121;28;20048;-58
2022/11/09 09:34:46;;;;;;;38.58;27.65;;;18.70;99.90;;;;;;5023733;28;20025;-57
2022/11/09 09:37:12;;;;;;;37.90;28.33;;;18.70;99.90;;;;;;5011282;28;20092;-58
2022/11/09 09:39:37;;;;;;;38.20;28.88;;;18.50;99.90;;;;;;5027773;28;20041;-58
2022/11/09 09:42:35;;;;;;;42.92;29.75;;;18.00;99.90;;;;;;5001494;28;20052;-58
2022/11/09 09:45:17;;;;;;;43.72;31.98;;;18.20;99.90;;;;;;5081318;28;20037;-58
2022/11/09 09:48:15;;;;;;;;;;;18.10;99.90;;;;;;5078370;28;20032;-56
2022/11/09 09:50:57;;;;;;;46.63;32.38;;;18.30;99.90;;;;;;5006825;28;20392;-57
2022/11/09 09:53:31;;;;;;;51.55;34.60;;;18.50;99.90;;;;;;5017505;28;20070;-56
2022/11/09 09:56:04;;;;;;;40.80;31.17;;;;;;;;;;5013770;28;20033;-61
2022/11/09 09:58:33;;;;;;;46.83;36.40;;;20.60;99.90;;;;;;5012631;28;20076;-63
2022/11/09 10:01:26;;;;;;;39.72;32.42;;;;;;;;;;5009683;28;20062;-61
2022/11/09 10:03:51;;;;;;;39.35;28.27;;;21.50;99.90;;;;;;4980478;28;20544;-57
2022/11/09 10:06:36;;;;;;;35.22;29.88;;;21.60;99.90;;;;;;4975923;28;20133;-59
2022/11/09 10:09:23;;;;;;;32.65;27.25;;;;;;;;;;4978541;28;20430;-60
2022/11/09 10:11:52;;;;;;;34.28;28.35;;;;;;;;;;4974216;28;20038;-58
2022/11/09 10:14:21;;;;;;;30.55;27.25;;;;;;;;;;4962869;28;20073;-57
2022/11/09 10:17:03;;;;;;;37.08;29.05;;;23.50;99.90;;;;;;4974528;28;20030;-61
2022/11/09 10:20:07;;;;;;;36.13;31.35;;;23.10;99.90;;;;;;4977796;28;20050;-59
2022/11/09 10:22:55;;;;;;;34.60;30.30;;;23.30;99.90;;;;;;4964717;28;20470;-62
2022/11/09 10:25:29;;;;;;;38.45;31.13;;;;;;;;;;4979851;28;20038;-60
2022/11/09 10:27:58;;;;;;;36.72;31.75;;;24.60;99.90;;;;;;5012366;28;20517;-56
2022/11/09 10:30:25;;;;;;;39.10;33.83;;;24.10;99.90;;;;;;5012639;28;20108;-61
2022/11/09 10:32:54;;;;;;;33.20;28.52;;;;;;;;;;5012725;28;20052;-62
2022/11/09 10:35:32;;;;;;;29.95;26.75;;;25.10;99.90;;;;;;5013319;28;20048;-62
2022/11/09 10:37:58;;;;;;;32.35;27.27;;;;;;;;;;5012558;28;20605;-62
2022/11/09 10:40:30;;;;;;;33.60;27.08;;;;;;;;;;5035270;28;20055;-62
2022/11/09 10:42:59;;;;;;;29.77;25.77;;;26.00;99.90;;;;;;5075972;28;20069;-62
2022/11/09 10:45:28;;;;;;;27.50;24.23;;;;;;;;;;5084944;28;20066;-60
2022/11/09 10:47:54;;;;;;;28.63;24.58;;;;;;;;;;5072296;28;20036;-59
2022/11/09 10:50:23;;;;;;;35.45;27.95;;;;;;;;;;5072891;28;20070;-56
2022/11/09 10:52:49;;;;;;;30.48;24.63;;;25.90;99.90;;;;;;5079637;28;20481;-57
2022/11/09 10:55:20;;;;;;;31.13;26.50;;;;;;;;;;5084110;28;20024;-61
2022/11/09 10:57:59;;;;;;;30.83;26.55;;;26.30;99.90;;;;;;5081067;28;20044;-59
2022/11/09 11:00:26;;;;;;;30.92;23.92;;;26.30;96.20;;;;;;5078932;28;20519;-59
2022/11/09 11:02:53;;;;;;;28.92;24.58;;;26.40;95.70;;;;;;5075092;28;20384;-61
2022/11/09 11:05:23;;;;;;;29.75;23.25;;;26.00;95.50;;;;;;5082670;28;20048;-57
2022/11/09 11:07:48;;;;;;;30.67;25.98;;;26.10;95.70;;;;;;5062585;28;20109;-60
2022/11/09 11:10:14;;;;;;;29.95;23.45;;;25.90;95.60;;;;;;5075334;28;20052;-59
2022/11/09 11:12:41;;;;;;;27.65;24.00;;;26.00;94.90;;;;;;5086007;28;20031;-57
2022/11/09 11:15:27;;;;;;;28.30;23.65;;;25.90;95.20;;;;;;5084262;28;20023;-59
2022/11/09 11:18:01;;;;;;;31.95;23.95;;;25.10;95.10;;;;;;5090584;28;20047;-57
2022/11/09 11:20:32;;;;;;;31.42;25.92;;;25.60;95.60;;;;;;5066049;28;20032;-57
2022/11/09 11:23:25;;;;;;;42.05;32.28;;;25.50;95.70;;;;;;5049350;28;20040;-63
2022/11/09 11:25:54;;;;;;;29.38;24.73;;;26.00;95.80;;;;;;5076990;28;20036;-57
2022/11/09 11:28:29;;;;;;;31.17;25.50;;;25.90;95.50;;;;;;5082223;28;20381;-62
2022/11/09 11:30:55;;;;;;;29.85;24.13;;;;;;;;;;5073476;28;20024;-60
2022/11/09 11:33:21;;;;;;;31.60;27.30;;;26.40;95.30;;;;;;5069601;28;20037;-59
2022/11/09 11:36:01;;;;;;;42.67;29.05;;;26.40;95.20;;;;;;5069408;28;20487;-54
2022/11/09 11:38:32;;;;;;;37.05;28.05;;;26.10;95.30;;;;;;5062752;28;20564;-53
2022/11/09 11:41:21;;;;;;;34.10;28.42;;;25.80;95.20;;;;;;5058662;28;20078;-54
2022/11/09 11:43:46;;;;;;;36.33;28.38;;;25.60;95.50;;;;;;5060615;28;20063;-56
2022/11/09 11:46:34;;;;;;;31.95;25.33;;;25.50;95.50;;;;;;5061566;28;20064;-51
2022/11/09 11:49:24;;;;;;;32.28;25.75;;;25.00;95.90;;;;;;5042587;28;20415;-52
2022/11/09 11:52:15;;;;;;;30.85;25.52;;;24.50;95.50;;;;;;5073918;28;20060;-49
2022/11/09 11:55:14;;;;;;;34.78;26.40;;;24.10;99.90;;;;;;5069289;28;20511;-53
2022/11/09 11:58:10;;;;;;;31.05;25.92;;;24.20;97.70;;;;;;5069202;28;20393;-50
2022/11/09 12:00:47;;;;;;;28.67;21.20;;;24.40;97.50;;;;;;5052150;28;20503;-55
2022/11/09 12:03:43;;;;;;;26.20;21.42;;;24.10;96.70;;;;;;5033240;28;20119;-49
2022/11/09 12:06:31;;;;;;;28.08;22.75;;;23.80;96.80;;;;;;5068196;28;20118;-54
2022/11/09 12:09:12;;;;;;;29.80;22.75;;;23.50;97.30;;;;;;5064729;28;20469;-53
2022/11/09 12:11:53;;;;;;;26.00;21.40;;;;;;;;;;5067894;28;20016;-53
2022/11/09 12:14:47;;;;;;;28.83;23.40;;;23.40;99.90;;;;;;5082391;28;20023;-54
2022/11/09 12:17:47;;;;;;;24.90;21.08;;;;;;;;;;5034860;28;20049;-56
2022/11/09 12:20:18;;;;;;;25.40;21.83;;;23.00;99.90;;;;;;5003901;28;20053;-54
2022/11/09 12:22:58;;;;;;;26.60;20.77;;;23.10;97.90;;;;;;5006525;28;20046;-53
2022/11/09 12:25:43;;;;;;;28.88;20.42;;;22.80;97.80;;;;;;5003584;28;20120;-55
2022/11/09 12:28:33;;;;;;;25.00;20.80;;;22.70;97.80;;;;;;5005306;28;20131;-52
2022/11/09 12:31:04;;;;;;;25.25;20.58;;;22.80;98.20;;;;;;5003576;28;20042;-56
2022/11/09 12:33:51;;;;;;;29.47;20.50;;;22.80;98.30;;;;;;5006528;28;20034;-52
2022/11/09 12:36:46;;;;;;;27.45;20.67;;;23.20;98.30;;;;;;5006514;28;20089;-52
2022/11/09 12:39:21;;;;;;;26.85;21.02;;;22.70;98.30;;;;;;5010184;28;20029;-50
2022/11/09 12:41:48;;;;;;;26.80;19.40;;;;;;;;;;5004782;28;20154;-48
2022/11/09 12:44:26;;;;;;;23.23;17.65;;;23.20;99.00;;;;;;5007231;28;20452;-50
2022/11/09 12:47:14;;;;;;;22.13;18.20;;;22.80;97.80;;;;;;5004088;28;20092;-46
2022/11/09 12:49:43;;;;;;;22.75;18.50;;;22.90;98.40;;;;;;5005899;28;20638;-50
2022/11/09 12:52:14;;;;;;;24.67;19.63;;;22.40;98.30;;;;;;4974011;28;20034;-50
2022/11/09 12:54:46;;;;;;;21.08;17.25;;;22.30;98.80;;;;;;5010868;28;20022;-53